Tiempo atmosférico en la estación meteorológica de Leciñena, Zaragoza (405 m.)



Fecha
DESCASC
Temp. máxima en grados centígrados (hora)
DESCASC
Temp. mínima en grados centígrados (hora)
DESCASC
Temp. media en grados centígrados
DESCASC
Racha de viento máxima en m/sg (hora)
DESCASC
Velocidad máxima media en intervalos de 10 minutos(hora)
DESCASC
Precipitaciones diarias en mm
DESCASC
Precipitaciones de 00:00 a 06:00 en mm
DESCASC
Precipitaciones de 06:00 a 12:00 en mm
DESCASC
Precipitaciones de 12:00 a 18:00 en mm
DESCASC
Precipitaciones de 18:00 a 24:00 en mm
DESCASC
18-04-2019 18 (16:00) 9.6 (07:00) 13.8 16.11 (13:40) 7.78 (19:40) 0 0 0 0 0
17-04-2019 19.7 (17:20) 9.2 (06:00) 14.5 14.72 (16:00) 7.22 (17:10) 0 0 0 0 0
16-04-2019 21.2 (18:20) 5.6 (00:00) 13.4 9.17 (23:20) 5.56 (22:40) 0 0 0 0 0
15-04-2019 19.5 (14:30) 8.7 (00:00) 14.1 15 (19:40) 6.11 (19:40) 0.2 0 0 0 0.2
14-04-2019 23.9 (17:00) 4.4 (00:00) 14.1 12.78 (18:10) 8.33 (18:00) 0 0 0 0 0
13-04-2019 22.6 (17:40) -0.5 (-00:0) 11.1 9.17 (16:00) 3.61 (16:50) 0 0 0 0 0
12-04-2019 19.6 (17:00) 1.5 (07:00) 10.6 10 (16:30) 5.83 (16:30) 0 0 0 0 0
11-04-2019 15.6 (14:50) 6.1 (00:00) 10.9 16.39 (17:10) 10.56 (13:20) 0 0 0 0 0
10-04-2019 16.6 (14:40) 5.3 (00:00) 11 11.11 (20:20) 7.22 (20:20) 0.2 0 0.2 0 0
09-04-2019 18.1 (15:40) 6.2 (00:00) 12.2 10.28 (12:00) 5.83 (16:50) 2 1.6 0 0.4 0
08-04-2019 19 (16:30) 7.2 (00:00) 13.1 11.39 (21:20) 6.67 (21:20) 4.8 0.2 0 0 4.6
07-04-2019 15.1 (19:00) 5.5 (00:00) 10.3 11.39 (14:10) 6.94 (13:40) 1.6 0.8 0.8 0 0
06-04-2019 14.7 (15:40) 4.5 (00:00) 9.6 11.11 (18:40) 6.94 (18:40) 5.4 4.4 0 0 1
05-04-2019 14.3 (14:00) 5.3 (00:00) 9.8 9.72 (01:50) 5.56 (01:50) 10.2 0 0.4 7.4 2.4
04-04-2019 14.2 (17:40) -0.4 (00:00) 6.9 10.28 (16:20) 5.56 (12:30) 0 0 0 0 0
03-04-2019 11.7 (00:10) 3.8 (23:59) 7.7 11.67 (19:00) 6.94 (18:50) 0 0 0 0 0
02-04-2019 19.6 (17:00) 4.5 (00:00) 12.1 9.17 (17:30) 5.83 (17:30) 0.2 0.2 0 0 0
01-04-2019 16.4 (18:30) 7.6 (00:00) 12 5 (19:10) 2.5 (11:30) 6 3.2 2.8 0 0
31-03-2019 13.2 (15:00) 2.7 (00:00) 7.9 6.11 (15:30) 3.89 (15:30) 0.2 0 0 0 0.2
30-03-2019 19 (15:50) 5.9 (00:00) 12.5 10.56 (15:10) 4.44 (04:30) 0 0 0 0 0
29-03-2019 19.5 (15:10) 3.6 (00:00) 11.5 14.72 (16:20) 5.56 (13:40) 0 0 0 0 0
28-03-2019 19.4 (16:00) -1.8 (-00:0) 8.8 5.56 (14:50) 2.78 (23:20) 0 0 0 0 0
27-03-2019 20.2 (16:30) -1.3 (-00:0) 9.5 6.11 (16:00) 3.33 (18:00) 0 0 0 0 0
26-03-2019 20.5 (16:40) -0.8 (-00:0) 9.8 6.67 (15:00) 3.33 (16:40) 0 0 0 0 0
25-03-2019 18.1 (15:00) 1.4 (00:00) 9.8 10.28 (16:30) 6.11 (16:30) 0 0 0 0 0
24-03-2019 23.9 (16:00) 2.4 (00:00) 13.1 6.94 (15:20) 3.89 (15:00) 0 0 0 0 0
23-03-2019 23.5 (15:40) 1.9 (00:00) 12.7 6.11 (15:00) 3.61 (15:10) 0 0 0 0 0
22-03-2019 20.6 (16:50) -1.1 (-00:0) 9.8 5.83 (14:40) 3.06 (12:40) 0 0 0 0 0
21-03-2019 17.4 (17:10) -2.9 (-00:0) 7.2 5.83 (15:30) 2.5 (14:30) 0 0 0 0 0

Gráficas

Temp. máximas Temp. mínimas Temp. medias Precipitaciones Rachas de viento máximas Velocidades máximas media en intervalos de 10 minutos

Datos horarios

Fecha y hora oficial Temperatura (ºC) Velocidad del viento (km/h) Dirección del viento Racha (km/h) Dirección de racha Precipitación (mm) Presión (hPa) Tendencia (hPa) Humedad (%)
2019-04-19 23:00:00 12.9 0 Calma 6 Sur 0 -- -- 59
2019-04-19 22:00:00 12.9 2 Nordeste 19 Sudeste 0 -- -- 60
2019-04-19 21:00:00 17.2 9 Sur 22 Sur 0 -- -- 46
2019-04-19 20:00:00 18.5 10 Sur 34 Sur 0 -- -- 43
2019-04-19 19:00:00 19.5 16 Sudeste 36 Sur 0 -- -- 40
2019-04-19 18:00:00 19.7 19 Sudeste 36 Sur 0 -- -- 40
2019-04-19 17:00:00 19.2 17 Sudeste 46 Sudeste 0 -- -- 42
2019-04-19 16:00:00 19.2 16 Sur 38 Sur 0 -- -- 45
2019-04-19 15:00:00 18.4 17 Sur 50 Sur 0 -- -- 48
2019-04-19 14:00:00 18.9 21 Sudeste 48 Sudeste 0 -- -- 47
2019-04-19 13:00:00 18 18 Sur 45 Sur 0 -- -- 47
2019-04-19 12:00:00 16.8 22 Sur 52 Sur 0 -- -- 53
2019-04-19 11:00:00 16.1 28 Sur 56 Sur 0 -- -- 53
2019-04-19 10:00:00 15.6 22 Sur 51 Sudeste 0 -- -- 53
2019-04-19 09:00:00 14.3 21 Sur 47 Sur 0 -- -- 55
2019-04-19 08:00:00 13.9 24 Sur 59 Sur 0 -- -- 55
2019-04-19 07:00:00 13.6 23 Sur 50 Sudeste 0 -- -- 56
2019-04-19 06:00:00 13.5 22 Sudeste 53 Sur 0 -- -- 56
2019-04-19 05:00:00 13.1 22 Sudeste 49 Sur 0.2 -- -- 59
2019-04-19 04:00:00 12.1 17 Sur 42 Sur 0.6 -- -- 72
2019-04-19 03:00:00 12.4 13 Sur 34 Sudeste 0.6 -- -- 66
2019-04-19 02:00:00 13 17 Sur 45 Sur 0 -- -- 62
2019-04-19 01:00:00 14.1 6 Sudeste 29 Sudeste 0 -- -- 55
2019-04-19 00:00:00 14.5 10 Sudeste 22 Sur 0 -- -- 59
2019-04-18 23:00:00 15.1 8 Sur 38 Sur 0 -- -- 59
2019-04-18 22:00:00 15.6 19 Sur 41 Sudeste 0 -- -- 57
2019-04-18 21:00:00 16.1 13 Sur 45 Sur 0 -- -- 55
2019-04-18 20:00:00 17 20 Sur 50 Sur 0 -- -- 51
2019-04-18 19:00:00 17.6 14 Sudeste 36 Sudeste 0 -- -- 48
2019-04-18 18:00:00 17.8 16 Sudeste 45 Sur 0 -- -- 47
2019-04-18 17:00:00 17.6 17 Sudeste 49 Sur 0 -- -- 47
2019-04-18 16:00:00 18 14 Sur 39 Sur 0 -- -- 44
2019-04-18 15:00:00 17 19 Sur 48 Sudeste 0 -- -- 47
2019-04-18 14:00:00 16.1 21 Sur 58 Sur 0 -- -- 51
2019-04-18 13:00:00 15 18 Sur 42 Sur 0 -- -- 53
2019-04-18 12:00:00 13.8 7 Sudeste 28 Sudeste 0 -- -- 73
2019-04-18 11:00:00 11.4 11 Sudoeste 27 Sudeste 0 -- -- 82
2019-04-18 10:00:00 12.5 4 Este 38 Sur 0 -- -- 73
2019-04-18 09:00:00 11.9 14 Sudeste 42 Sur 0 -- -- 79
2019-04-18 08:00:00 10.1 12 Sudeste 31 Sudeste 0 -- -- 87
2019-04-18 07:00:00 9.6 10 Sudeste 26 Sur 0 -- -- 87
2019-04-18 06:00:00 10.9 8 Sudeste 26 Sur 0 -- -- 84
2019-04-18 05:00:00 11 9 Sudeste 32 Sudeste 0 -- -- 82
2019-04-18 04:00:00 11.3 17 Sudeste 34 Sudeste 0 -- -- 82
2019-04-18 03:00:00 11.3 9 Sudeste 31 Sur 0 -- -- 82
2019-04-18 02:00:00 11.4 13 Sur 34 Sudeste 0 -- -- 81
2019-04-18 01:00:00 11.9 8 Sudeste 40 Sur 0 -- -- 74
2019-04-18 00:00:00 12.5 22 Sudeste 36 Sur 0 -- -- 68
2019-04-17 23:00:00 12.8 14 Sur 29 Sur 0 -- -- 69
2019-04-17 22:00:00 13.8 18 Sur 40 Sur 0 -- -- 68
2019-04-17 21:00:00 15.4 13 Sudeste 42 Sur 0 -- -- 62
2019-04-17 20:00:00 16.9 9 Sudeste 40 Sudeste 0 -- -- 57
2019-04-17 19:00:00 18 13 Sudeste 44 Sur 0 -- -- 52
2019-04-17 18:00:00 18.6 18 Sudeste 48 Sudeste 0 -- -- 51
2019-04-17 17:00:00 19.4 22 Sudeste 48 Sur 0 -- -- 51
2019-04-17 16:00:00 19.2 25 Sur 53 Sudeste 0 -- -- 51
2019-04-17 15:00:00 18.1 21 Sur 45 Sudeste 0 -- -- 55
2019-04-17 14:00:00 17.8 18 Sudeste 42 Sudeste 0 -- -- 57
2019-04-17 13:00:00 16.2 15 Sudeste 39 Sur 0 -- -- 59
2019-04-17 12:00:00 15.4 11 Sudeste 38 Sur 0 -- -- 60
2019-04-17 11:00:00 13.6 11 Sudeste 40 Sur 0 -- -- 68
2019-04-17 10:00:00 12.5 19 Sudeste 42 Sudeste 0 -- -- 73
2019-04-17 09:00:00 11.1 12 Sudeste 32 Sur 0 -- -- 78
2019-04-17 08:00:00 9.5 5 Sudeste 33 Sur 0 -- -- 84
2019-04-17 07:00:00 9.3 7 Sudeste 29 Sudeste 0 -- -- 85
2019-04-17 06:00:00 9.2 8 Sudeste 31 Sudeste 0 -- -- 84
2019-04-17 05:00:00 9.5 8 Sudeste 28 Sur 0 -- -- 85
2019-04-17 04:00:00 9.7 6 Sudeste 21 Sudeste 0 -- -- 82
2019-04-17 03:00:00 9.8 3 Este 13 Sur 0 -- -- 74
2019-04-17 02:00:00 10.3 4 Sudeste 15 Sur 0 -- -- 64
2019-04-17 01:00:00 10.7 2 Sudoeste 15 Sur 0 -- -- 60
2019-04-17 00:00:00 13.6 5 Sudeste 33 Sur 0 -- -- 56
2019-04-16 23:00:00 14.5 17 Sur 32 Sur 0 -- -- 56
2019-04-16 22:00:00 15 18 Sur 28 Sur 0 -- -- 55
2019-04-16 21:00:00 16.8 8 Sudeste 22 Sudeste 0 -- -- 55
2019-04-16 20:00:00 18.5 10 Sudeste 26 Sudeste 0 -- -- 49
2019-04-16 19:00:00 20.6 6 Sudeste 22 Sur 0 -- -- 42
2019-04-16 18:00:00 20.9 9 Norte 17 Este 0 -- -- 41
2019-04-16 17:00:00 20.3 8 Norte 20 Norte 0 -- -- 40
2019-04-16 16:00:00 19.4 9 Nordeste 15 Nordeste 0 -- -- 41
2019-04-16 15:00:00 19.9 5 Norte 16 Nordeste 0 -- -- 40
2019-04-16 14:00:00 18.9 8 Nordeste 18 Norte 0 -- -- 42
2019-04-16 13:00:00 18.2 9 Noroeste 21 Norte 0 -- -- 48
2019-04-16 12:00:00 17 7 Noroeste 15 Oeste 0 -- -- 56
2019-04-16 11:00:00 14.4 4 Nordeste 13 Noroeste 0 -- -- 66
2019-04-16 10:00:00 11.9 6 Nordeste 13 Norte 0 -- -- 76
2019-04-16 09:00:00 9.4 6 Sudoeste 9 Sur 0 -- -- 89
2019-04-16 08:00:00 5.6 6 Sur 9 Sur 0 -- -- 91
2019-04-16 07:00:00 7.3 3 Sur 7 Sur 0 -- -- 87
2019-04-16 06:00:00 8 0 Calma 5 Sur 0 -- -- 86
2019-04-16 05:00:00 8.5 0 Calma 8 Sur 0 -- -- 85
2019-04-16 04:00:00 8.6 3 Sudoeste 8 Este 0 -- -- 83
2019-04-16 03:00:00 8.3 3 Noroeste 11 Este 0 -- -- 81
2019-04-16 02:00:00 9.4 6 Noroeste 13 Oeste 0 -- -- 75
2019-04-16 01:00:00 9.6 3 Sudoeste 14 Sur 0 -- -- 74
2019-04-16 00:00:00 10.5 6 Sur 28 Sudeste 0 -- -- 71
2019-04-15 23:00:00 11.2 10 Oeste 39 Sur 0.2 -- -- 75
2019-04-15 22:00:00 12.7 12 Sudeste 37 Sur 0 -- -- 65
2019-04-15 21:00:00 14 11 Sudeste 51 Sudeste 0 -- -- 60
2019-04-15 20:00:00 15.5 18 Sudeste 54 Sudeste 0 -- -- 57
2019-04-15 19:00:00 16.7 12 Sudeste 44 Sudeste 0 -- -- 54
2019-04-15 18:00:00 18.8 13 Sudeste 46 Sudeste 0 -- -- 51
2019-04-15 17:00:00 18.9 15 Sudeste 48 Sur 0 -- -- 52
2019-04-15 16:00:00 18.5 15 Sudeste 42 Sudeste 0 -- -- 54
2019-04-15 15:00:00 19.4 12 Sudeste 44 Sur 0 -- -- 52
2019-04-15 14:00:00 18.9 10 Sudeste 39 Sur 0 -- -- 52
2019-04-15 13:00:00 17.8 12 Sudeste 39 Sur 0 -- -- 53
2019-04-15 12:00:00 16.8 8 Sudeste 30 Sur 0 -- -- 60
2019-04-15 11:00:00 14.5 9 Sudeste 29 Este 0 -- -- 70
2019-04-15 10:00:00 12.3 11 Sudeste 28 Sur 0 -- -- 83
2019-04-15 09:00:00 11.5 9 Oeste 26 Sur 0 -- -- 87
2019-04-15 08:00:00 11.3 8 Sur 27 Sur 0 -- -- 84
2019-04-15 07:00:00 10.4 4 Sudoeste 15 Sur 0 -- -- 87
2019-04-15 06:00:00 9.8 2 Sur 10 Sur 0 -- -- 91
2019-04-15 05:00:00 9.3 5 Sudoeste 10 Oeste 0 -- -- 89
2019-04-15 04:00:00 10.2 4 Oeste 13 Sudoeste 0 -- -- 80
2019-04-15 03:00:00 10.6 5 Sur 9 Sudoeste 0 -- -- 87
2019-04-15 02:00:00 10.3 3 Sur 6 Sur 0 -- -- 86
2019-04-15 01:00:00 13.5 2 Sur 8 Noroeste 0 -- -- 73
2019-04-15 00:00:00 14.2 3 Sur 12 Noroeste 0 -- -- 71
2019-04-14 23:00:00 17.2 11 Norte 23 Noroeste 0 -- -- 60
2019-04-14 22:00:00 16 8 Norte 19 Norte 0 -- -- 66
2019-04-14 21:00:00 17.9 12 Norte 39 Norte 0 -- -- 60
2019-04-14 20:00:00 20.2 26 Norte 40 Norte 0 -- -- 51
2019-04-14 19:00:00 22.1 27 Norte 46 Norte 0 -- -- 46
2019-04-14 18:00:00 23 30 Norte 45 Norte 0 -- -- 42
2019-04-14 17:00:00 23.9 22 Norte 42 Norte 0 -- -- 39
2019-04-14 16:00:00 23.1 26 Norte 42 Norte 0 -- -- 39
2019-04-14 15:00:00 22.9 21 Norte 43 Norte 0 -- -- 39
2019-04-14 14:00:00 21.5 22 Norte 41 Norte 0 -- -- 41
2019-04-14 13:00:00 20.7 24 Norte 39 Noroeste 0 -- -- 39
2019-04-14 12:00:00 19.3 20 Norte 34 Norte 0 -- -- 39
2019-04-14 11:00:00 18.2 14 Noroeste 24 Norte 0 -- -- 40
2019-04-14 10:00:00 15.3 8 Noroeste 14 Noroeste 0 -- -- 42
2019-04-14 09:00:00 11.2 5 Sudoeste 13 Sur 0 -- -- 52
2019-04-14 08:00:00 7.4 5 Sur 10 Sudoeste 0 -- -- 56
2019-04-14 07:00:00 5.2 8 Sur 10 Sur 0 -- -- 62
2019-04-14 06:00:00 4.4 2 Sudoeste 8 Sur 0 -- -- 63
2019-04-14 05:00:00 5.2 5 Sur 9 Sur 0 -- -- 58
2019-04-14 04:00:00 5.2 5 Sur 9 Sudoeste 0 -- -- 58
2019-04-14 03:00:00 5.3 2 Sur 10 Sudoeste 0 -- -- 57
2019-04-14 02:00:00 6.1 4 Sur 8 Sur 0 -- -- 51
2019-04-14 01:00:00 6.1 4 Sur 7 Sur 0 -- -- 51
2019-04-14 00:00:00 6.5 6 Sur 8 Sudoeste 0 -- -- 52
2019-04-13 23:00:00 8 4 Sudoeste 9 Sur 0 -- -- 43
2019-04-13 22:00:00 11.3 0 Calma 16 Norte 0 -- -- 34
2019-04-13 21:00:00 14.9 8 Noroeste 13 Noroeste 0 -- -- 21
2019-04-13 20:00:00 19.7 5 Noroeste 19 Norte 0 -- -- 19
2019-04-13 19:00:00 22 10 Noroeste 19 Noroeste 0 -- -- 16
2019-04-13 18:00:00 22 10 Norte 23 Noroeste 0 -- -- 19
2019-04-13 17:00:00 22.1 12 Noroeste 23 Noroeste 0 -- -- 18
2019-04-13 16:00:00 21.6 12 Noroeste 33 Noroeste 0 -- -- 24
2019-04-13 15:00:00 20.1 9 Noroeste 20 Noroeste 0 -- -- 28
2019-04-13 14:00:00 18.8 9 Oeste 19 Oeste 0 -- -- 34
2019-04-13 13:00:00 16.7 6 Noroeste 15 Noroeste 0 -- -- 39
2019-04-13 12:00:00 13.7 4 Norte 13 Norte 0 -- -- 46
2019-04-13 11:00:00 11.8 4 Noroeste 9 Noroeste 0 -- -- 52
2019-04-13 10:00:00 8.6 3 Sur 9 Sudoeste 0 -- -- 67
2019-04-13 09:00:00 3.2 0 Calma 5 Sur 0 -- -- 89
2019-04-13 08:00:00 -0.4 2 Sudoeste 4 Sudoeste 0 -- -- 91
2019-04-13 07:00:00 -0.1 0 Calma 5 Sur 0 -- -- 90
2019-04-13 06:00:00 0.7 5 Sur 8 Sur 0 -- -- 90
2019-04-13 05:00:00 0.9 5 Sur 8 Sur 0 -- -- 91
2019-04-13 04:00:00 1.4 2 Sur 6 Sudeste 0 -- -- 88
2019-04-13 03:00:00 2.5 5 Sur 8 Sur 0 -- -- 86
2019-04-13 02:00:00 3.1 3 Sur 9 Sudoeste 0 -- -- 84
2019-04-13 01:00:00 4.4 4 Sudoeste 8 Sudoeste 0 -- -- 80
2019-04-13 00:00:00 5.8 4 Sudoeste 11 Norte 0 -- -- 77
2019-04-12 23:00:00 7.4 4 Oeste 11 Noroeste 0 -- -- 70
2019-04-12 22:00:00 10.2 3 Sur 12 Noroeste 0 -- -- 59
2019-04-12 21:00:00 11.7 7 Noroeste 19 Noroeste 0 -- -- 52
2019-04-12 20:00:00 15.8 12 Noroeste 27 Norte 0 -- -- 40
2019-04-12 19:00:00 18 17 Noroeste 29 Noroeste 0 -- -- 34
2019-04-12 18:00:00 18.7 17 Norte 30 Noroeste 0 -- -- 30
2019-04-12 17:00:00 19.6 18 Noroeste 36 Norte 0 -- -- 29
2019-04-12 16:00:00 18.8 14 Norte 33 Noroeste 0 -- -- 32
2019-04-12 15:00:00 18.6 18 Noroeste 32 Noroeste 0 -- -- 35
2019-04-12 14:00:00 17 16 Norte 32 Norte 0 -- -- 39
2019-04-12 13:00:00 16.2 13 Norte 31 Norte 0 -- -- 43
2019-04-12 12:00:00 14.6 14 Norte 26 Norte 0 -- -- 51
2019-04-12 11:00:00 12.5 13 Norte 26 Norte 0 -- -- 59
2019-04-12 10:00:00 9.9 11 Norte 19 Norte 0 -- -- 71
2019-04-12 09:00:00 5.7 4 Sur 11 Sur 0 -- -- 90
2019-04-12 08:00:00 2.6 3 Sur 9 Sudoeste 0 -- -- 93
2019-04-12 07:00:00 1.5 4 Sudoeste 8 Sur 0 -- -- 92
2019-04-12 06:00:00 2.7 5 Sudoeste 8 Sur 0 -- -- 91
2019-04-12 05:00:00 3.4 4 Sudoeste 9 Sudoeste 0 -- -- 89
2019-04-12 04:00:00 5.6 9 Norte 14 Noroeste 0 -- -- 86
2019-04-12 03:00:00 5.7 4 Norte 21 Noroeste 0 -- -- 85
2019-04-12 02:00:00 6.8 7 Norte 21 Norte 0 -- -- 80
2019-04-12 01:00:00 7.4 11 Norte 25 Norte 0 -- -- 74
2019-04-12 00:00:00 8.1 12 Norte 23 Norte 0 -- -- 70
2019-04-11 23:00:00 8.7 12 Norte 26 Norte 0 -- -- 71
2019-04-11 22:00:00 9.9 15 Norte 30 Norte 0 -- -- 67
2019-04-11 21:00:00 10.5 18 Norte 41 Norte 0 -- -- 61
2019-04-11 20:00:00 12.4 27 Norte 50 Norte 0 -- -- 55
2019-04-11 19:00:00 14 30 Norte 52 Norte 0 -- -- 53
2019-04-11 18:00:00 14.8 35 Norte 59 Norte 0 -- -- 52
2019-04-11 17:00:00 15.1 32 Norte 56 Norte 0 -- -- 51
2019-04-11 16:00:00 15.6 33 Norte 55 Norte 0 -- -- 51
2019-04-11 15:00:00 15.5 38 Norte 55 Norte 0 -- -- 50
2019-04-11 14:00:00 14.9 35 Norte 57 Norte 0 -- -- 51
2019-04-11 13:00:00 14.5 32 Norte 50 Norte 0 -- -- 54
2019-04-11 12:00:00 12.8 30 Norte 49 Norte 0 -- -- 59
2019-04-11 11:00:00 11.6 33 Norte 48 Norte 0 -- -- 60
2019-04-11 10:00:00 10.3 27 Norte 42 Norte 0 -- -- 64
2019-04-11 09:00:00 8.6 18 Norte 30 Norte 0 -- -- 72
2019-04-11 08:00:00 6.7 10 Norte 22 Norte 0 -- -- 80
2019-04-11 07:00:00 6.5 11 Norte 21 Noroeste 0 -- -- 80
2019-04-11 06:00:00 6.1 10 Norte 17 Norte 0 -- -- 82
2019-04-11 05:00:00 6.4 9 Norte 18 Norte 0 -- -- 82
2019-04-11 04:00:00 6.8 9 Norte 24 Norte 0 -- -- 80
2019-04-11 03:00:00 7.1 9 Norte 19 Norte 0 -- -- 79
2019-04-11 02:00:00 6.9 8 Norte 17 Norte 0 -- -- 78
2019-04-11 01:00:00 6.5 4 Sudoeste 6 Sudoeste 0 -- -- 78
2019-04-11 00:00:00 7.1 3 Norte 11 Norte 0 -- -- 76
2019-04-10 23:00:00 9.3 8 Norte 18 Norte 0 -- -- 66
2019-04-10 22:00:00 10.3 11 Norte 28 Norte 0 -- -- 62
2019-04-10 21:00:00 11.5 18 Norte 40 Norte 0 -- -- 57
2019-04-10 20:00:00 14.1 15 Norte 33 Noroeste 0 -- -- 52
2019-04-10 19:00:00 14.9 17 Norte 32 Norte 0 -- -- 50
2019-04-10 18:00:00 15.2 22 Norte 36 Norte 0 -- -- 46
2019-04-10 17:00:00 15 20 Norte 34 Norte 0 -- -- 51
2019-04-10 16:00:00 15.9 16 Norte 30 Norte 0 -- -- 49
2019-04-10 15:00:00 15.6 14 Norte 30 Norte 0 -- -- 54
2019-04-10 14:00:00 15.9 14 Noroeste 25 Norte 0 -- -- 53
2019-04-10 13:00:00 14.8 12 Norte 27 Norte 0 -- -- 55
2019-04-10 12:00:00 12.6 15 Norte 28 Noroeste 0 -- -- 61
2019-04-10 11:00:00 11 15 Norte 33 Norte 0 -- -- 67
2019-04-10 10:00:00 9.8 17 Norte 30 Noroeste 0 -- -- 71
2019-04-10 09:00:00 8.7 11 Noroeste 22 Noroeste 0 -- -- 74
2019-04-10 08:00:00 7.4 7 Noroeste 19 Noroeste 0 -- -- 81
2019-04-10 07:00:00 6.4 7 Noroeste 14 Noroeste 0.2 -- -- 83
2019-04-10 06:00:00 5.4 6 Noroeste 10 Noroeste 0 -- -- 88
2019-04-10 05:00:00 5.5 3 Noroeste 13 Noroeste 0 -- -- 90
2019-04-10 04:00:00 6.1 5 Noroeste 20 Noroeste 0 -- -- 89
2019-04-10 03:00:00 6.9 12 Noroeste 22 Noroeste 0 -- -- 86
2019-04-10 02:00:00 7.1 5 Noroeste 14 Noroeste 0 -- -- 88
2019-04-10 01:00:00 7.8 6 Noroeste 18 Noroeste 0 -- -- 85
2019-04-10 00:00:00 8.6 7 Noroeste 18 Noroeste 0 -- -- 83
2019-04-09 23:00:00 9.1 12 Noroeste 23 Noroeste 0 -- -- 76
2019-04-09 22:00:00 9 7 Noroeste 24 Noroeste 0 -- -- 77
2019-04-09 21:00:00 11 15 Noroeste 32 Oeste 0 -- -- 70
2019-04-09 20:00:00 12.4 9 Oeste 32 Oeste 0 -- -- 63
2019-04-09 19:00:00 15.5 17 Noroeste 27 Noroeste 0 -- -- 51
2019-04-09 18:00:00 16.7 12 Noroeste 25 Norte 0 -- -- 47
2019-04-09 17:00:00 14.9 19 Norte 32 Norte 0.4 -- -- 54
2019-04-09 16:00:00 18 19 Noroeste 33 Noroeste 0 -- -- 43
2019-04-09 15:00:00 16.9 15 Noroeste 33 Nordeste 0 -- -- 45
2019-04-09 14:00:00 15.6 13 Norte 23 Norte 0 -- -- 51
2019-04-09 13:00:00 15.1 14 Norte 33 Norte 0 -- -- 52
2019-04-09 12:00:00 13.8 20 Noroeste 37 Norte 0 -- -- 59
2019-04-09 11:00:00 12.2 11 Noroeste 19 Noroeste 0 -- -- 68
2019-04-09 10:00:00 10.6 10 Noroeste 18 Noroeste 0 -- -- 78
2019-04-09 09:00:00 8.5 12 Oeste 20 Oeste 0 -- -- 89
2019-04-09 08:00:00 6.9 4 Sur 9 Sur 0 -- -- 89
2019-04-09 07:00:00 6.5 5 Sur 10 Oeste 0 -- -- 91
2019-04-09 06:00:00 7.7 3 Sudoeste 17 Oeste 0 -- -- 88
2019-04-09 05:00:00 8 8 Sudoeste 14 Sudoeste 0.4 -- -- 91
2019-04-09 04:00:00 9.3 4 Este 9 Este 1.2 -- -- 85
2019-04-09 03:00:00 9.6 0 Calma 12 Noroeste 0 -- -- 91
2019-04-09 02:00:00 9.3 4 Sudoeste 11 Sur 0 -- -- 92
2019-04-09 01:00:00 7.7 3 Sur 7 Sudeste 0 -- -- 93
2019-04-09 00:00:00 7.2 3 Sur 6 Sur 0 -- -- 94
2019-04-08 23:00:00 8.4 2 Sur 12 Sur 0 -- -- 91
2019-04-08 22:00:00 10.3 6 Sur 41 Noroeste 2 -- -- 85
2019-04-08 21:00:00 12.2 12 Oeste 22 Sudoeste 0.2 -- -- 82
2019-04-08 20:00:00 12.8 3 Sudoeste 10 Sur 0 -- -- 83
2019-04-08 19:00:00 13.5 9 Sur 25 Oeste 2.4 -- -- 75
2019-04-08 18:00:00 16 9 Nordeste 20 Nordeste 0 -- -- 59
2019-04-08 17:00:00 17.7 3 Norte 18 Noroeste 0 -- -- 52
2019-04-08 16:00:00 18.3 5 Nordeste 21 Noroeste 0 -- -- 53
2019-04-08 15:00:00 17.4 5 Noroeste 20 Norte 0 -- -- 59
2019-04-08 14:00:00 15.8 7 Noroeste 21 Noroeste 0 -- -- 63
2019-04-08 13:00:00 14.1 7 Norte 12 Norte 0 -- -- 66
2019-04-08 12:00:00 13 6 Sudoeste 12 Sur 0 -- -- 71
2019-04-08 11:00:00 11.8 5 Oeste 11 Sudoeste 0 -- -- 76
2019-04-08 10:00:00 10.5 3 Sudoeste 8 Oeste 0 -- -- 81
2019-04-08 09:00:00 8.8 0 Calma 3 Noroeste 0 -- -- 91
2019-04-08 08:00:00 7.6 0 Calma 2 Oeste 0 -- -- 95
2019-04-08 07:00:00 7.6 0 Calma 2 Noroeste 0 -- -- 93
2019-04-08 06:00:00 8.1 0 Calma 10 Sur 0.2 -- -- 88
2019-04-08 05:00:00 8 6 Sur 12 Noroeste 0 -- -- 88
2019-04-08 04:00:00 8.8 4 Sudoeste 13 Oeste 0 -- -- 78
2019-04-08 03:00:00 8.7 6 Sudoeste 14 Oeste 0 -- -- 74
2019-04-08 02:00:00 8.1 7 Sudoeste 14 Oeste 0 -- -- 73
2019-04-08 01:00:00 7.4 6 Sudoeste 10 Sudoeste 0 -- -- 81
2019-04-08 00:00:00 7.6 4 Sur 6 Sur 0 -- -- 79
2019-04-07 23:00:00 6.6 0 Calma 12 Sudoeste 0 -- -- 83
2019-04-07 22:00:00 7.1 3 Sudoeste 5 Sur 0 -- -- 80
2019-04-07 21:00:00 9.9 0 Calma 9 Noroeste 0 -- -- 65
2019-04-07 20:00:00 12.8 8 Norte 25 Noroeste 0 -- -- 52
2019-04-07 19:00:00 15.1 15 Norte 30 Norte 0 -- -- 42
2019-04-07 18:00:00 14.9 19 Norte 34 Norte 0 -- -- 43
2019-04-07 17:00:00 13.9 19 Norte 34 Noroeste 0 -- -- 49
2019-04-07 16:00:00 13.6 21 Norte 35 Norte 0 -- -- 52
2019-04-07 15:00:00 13.4 20 Norte 41 Norte 0 -- -- 52
2019-04-07 14:00:00 12.3 23 Norte 40 Norte 0 -- -- 58
2019-04-07 13:00:00 11.3 21 Norte 35 Norte 0 -- -- 60
2019-04-07 12:00:00 10.2 22 Norte 37 Nordeste 0 -- -- 66
2019-04-07 11:00:00 9.6 22 Norte 39 Noroeste 0 -- -- 73
2019-04-07 10:00:00 8.2 19 Norte 34 Norte 0 -- -- 73
2019-04-07 09:00:00 6.6 6 Norte 12 Noroeste 0.2 -- -- 90
2019-04-07 08:00:00 5.6 4 Norte 13 Norte 0 -- -- 95
2019-04-07 07:00:00 5.6 9 Norte 18 Norte 0.6 -- -- 94
2019-04-07 06:00:00 5.6 9 Norte 14 Norte 0.6 -- -- 94
2019-04-07 05:00:00 5.6 0 Calma 5 Sur 0 -- -- 93
2019-04-07 04:00:00 5.8 0 Calma 0 Calma 0.2 -- -- 91
2019-04-07 03:00:00 5.9 0 Calma 8 Noroeste 0 -- -- 89
2019-04-07 02:00:00 6.2 4 Oeste 10 Oeste 0 -- -- 84
2019-04-07 01:00:00 6.1 4 Sudoeste 8 Oeste 0 -- -- 86
2019-04-07 00:00:00 6.2 4 Oeste 11 Sudoeste 0 -- -- 84
2019-04-06 23:00:00 6.6 7 Oeste 13 Oeste 0 -- -- 82
2019-04-06 22:00:00 7.1 7 Sudoeste 15 Sur 0 -- -- 82
2019-04-06 21:00:00 7.3 10 Oeste 22 Oeste 0 -- -- 79
2019-04-06 20:00:00 7.8 10 Oeste 30 Oeste 0.6 -- -- 79
2019-04-06 19:00:00 8.1 15 Oeste 40 Oeste 0.4 -- -- 80
2019-04-06 18:00:00 13 10 Noroeste 23 Oeste 0 -- -- 45
2019-04-06 17:00:00 14.3 13 Oeste 31 Noroeste 0 -- -- 45
2019-04-06 16:00:00 14.1 19 Noroeste 31 Noroeste 0 -- -- 43
2019-04-06 15:00:00 14 19 Oeste 30 Oeste 0 -- -- 49
2019-04-06 14:00:00 13 15 Noroeste 38 Noroeste 0 -- -- 52
2019-04-06 13:00:00 12.1 15 Noroeste 24 Norte 0 -- -- 60
2019-04-06 12:00:00 10.8 10 Noroeste 22 Norte 0 -- -- 62
2019-04-06 11:00:00 9.1 13 Noroeste 23 Noroeste 0 -- -- 71
2019-04-06 10:00:00 6.7 7 Oeste 10 Oeste 0 -- -- 89
2019-04-06 09:00:00 4.6 2 Sur 10 Noroeste 0 -- -- 92
2019-04-06 08:00:00 4.6 7 Noroeste 14 Noroeste 0 -- -- 90
2019-04-06 07:00:00 5 7 Noroeste 15 Noroeste 0 -- -- 91
2019-04-06 06:00:00 4.9 8 Oeste 14 Oeste 0 -- -- 93
2019-04-06 05:00:00 5.2 7 Oeste 12 Oeste 0 -- -- 96
2019-04-06 04:00:00 5.4 6 Oeste 12 Oeste 0 -- -- 97
2019-04-06 03:00:00 5 6 Oeste 13 Oeste 0 -- -- 97
2019-04-06 02:00:00 4.8 3 Norte 16 Norte 2.2 -- -- 95
2019-04-06 01:00:00 4.9 8 Norte 22 Noroeste 2.2 -- -- 96
2019-04-06 00:00:00 5.3 12 Noroeste 32 Norte 1.6 -- -- 95
2019-04-05 23:00:00 7.4 2 Sudoeste 18 Sur 0.2 -- -- 91
2019-04-05 22:00:00 7.5 4 Sudoeste 15 Sur 0 -- -- 89
2019-04-05 21:00:00 7.2 4 Este 14 Sudeste 0 -- -- 88
2019-04-05 20:00:00 7.5 4 Este 18 Este 0.2 -- -- 89
2019-04-05 19:00:00 7.9 9 Este 17 Este 0.4 -- -- 89
2019-04-05 18:00:00 8.6 8 Este 14 Este 0.2 -- -- 89
2019-04-05 17:00:00 7.9 5 Nordeste 21 Noroeste 6.4 -- -- 94
2019-04-05 16:00:00 9.5 10 Norte 27 Sur 0.8 -- -- 86
2019-04-05 15:00:00 13 8 Sudeste 30 Sur 0 -- -- 62
2019-04-05 14:00:00 14.3 6 Sudeste 23 Sudeste 0 -- -- 60
2019-04-05 13:00:00 11.2 8 Sudeste 28 Sur 0 -- -- 69
2019-04-05 12:00:00 10 7 Sudeste 27 Sur 0 -- -- 71
2019-04-05 11:00:00 10.1 13 Sur 26 Sur 0 -- -- 74
2019-04-05 10:00:00 7.6 14 Sudeste 33 Sur 0 -- -- 80
2019-04-05 09:00:00 6.4 13 Sudeste 35 Sudeste 0.2 -- -- 82
2019-04-05 08:00:00 6 10 Sudeste 30 Sur 0.2 -- -- 80
2019-04-05 07:00:00 6.6 9 Sudeste 27 Sur 0 -- -- 72
2019-04-05 06:00:00 6.9 5 Sudeste 18 Sur 0 -- -- 67
2019-04-05 05:00:00 6.9 4 Sudeste 21 Sur 0 -- -- 65
2019-04-05 04:00:00 7.2 7 Sur 21 Sudeste 0 -- -- 61
2019-04-05 03:00:00 8.6 4 Noroeste 27 Sur 0 -- -- 56
2019-04-05 02:00:00 9.8 19 Sur 35 Sur 0 -- -- 47
2019-04-05 01:00:00 10.1 18 Sur 31 Sur 0 -- -- 37
2019-04-05 00:00:00 9.5 9 Sur 22 Sur 0 -- -- 37
2019-04-04 23:00:00 10 9 Sur 27 Sur 0 -- -- 36
2019-04-04 22:00:00 10.8 12 Sur 23 Sur 0 -- -- 35
2019-04-04 21:00:00 11 6 Sudeste 19 Sur 0 -- -- 36
2019-04-04 20:00:00 12.2 2 Sudeste 12 Sur 0 -- -- 35
2019-04-04 19:00:00 12.6 0 Calma 10 Sudeste 0 -- -- 34
2019-04-04 18:00:00 14 4 Oeste 20 Oeste 0 -- -- 28
2019-04-04 17:00:00 13 8 Noroeste 37 Norte 0 -- -- 32
2019-04-04 16:00:00 13.1 13 Norte 31 Norte 0 -- -- 36
2019-04-04 15:00:00 12.4 13 Norte 28 Norte 0 -- -- 38
2019-04-04 14:00:00 11.4 12 Norte 30 Noroeste 0 -- -- 43
2019-04-04 13:00:00 9.8 20 Norte 34 Noroeste 0 -- -- 46
2019-04-04 12:00:00 8.8 16 Norte 30 Norte 0 -- -- 51
2019-04-04 11:00:00 7.8 15 Norte 29 Norte 0 -- -- 55
2019-04-04 10:00:00 5.8 11 Noroeste 21 Noroeste 0 -- -- 65
2019-04-04 09:00:00 2.5 4 Nordeste 8 Norte 0 -- -- 75
2019-04-04 08:00:00 -0.4 0 Calma 8 Norte 0 -- -- 85
2019-04-04 07:00:00 0.3 6 Norte 16 Norte 0 -- -- 82
2019-04-04 06:00:00 1.2 9 Norte 20 Norte 0 -- -- 79
2019-04-04 05:00:00 2 11 Norte 19 Norte 0 -- -- 75
2019-04-04 04:00:00 1.5 12 Noroeste 20 Noroeste 0 -- -- 77
2019-04-04 03:00:00 1.5 9 Noroeste 19 Norte 0 -- -- 76
2019-04-04 02:00:00 3.2 12 Norte 24 Norte 0 -- -- 67
2019-04-04 01:00:00 3.9 16 Norte 26 Norte 0 -- -- 64
2019-04-04 00:00:00 3.8 12 Norte 27 Noroeste 0 -- -- 70
2019-04-03 23:00:00 4 11 Noroeste 21 Noroeste 0 -- -- 87
2019-04-03 22:00:00 4.8 10 Noroeste 21 Noroeste 0 -- -- 85
2019-04-03 21:00:00 5.3 12 Oeste 24 Noroeste 0 -- -- 85
2019-04-03 20:00:00 6.3 5 Noroeste 40 Nordeste 0 -- -- 77
2019-04-03 19:00:00 6.9 25 Norte 42 Norte 0 -- -- 79
2019-04-03 18:00:00 9.6 19 Norte 31 Norte 0 -- -- 62
2019-04-03 17:00:00 11.2 15 Norte 24 Noroeste 0 -- -- 55
2019-04-03 16:00:00 9.2 14 Norte 27 Norte 0 -- -- 62
2019-04-03 15:00:00 8.3 14 Norte 27 Norte 0 -- -- 67
2019-04-03 14:00:00 8.8 17 Norte 30 Norte 0 -- -- 70
2019-04-03 13:00:00 9.5 18 Norte 33 Norte 0 -- -- 64
2019-04-03 12:00:00 10.8 16 Norte 24 Norte 0 -- -- 63
2019-04-03 11:00:00 10.4 12 Oeste 19 Oeste 0 -- -- 75
2019-04-03 10:00:00 9 11 Noroeste 15 Oeste 0 -- -- 80
2019-04-03 09:00:00 7.5 5 Oeste 13 Noroeste 0 -- -- 89
2019-04-03 08:00:00 4.9 5 Sur 7 Sur 0 -- -- 91
2019-04-03 07:00:00 4.4 6 Sudoeste 9 Sur 0 -- -- 93
2019-04-03 06:00:00 5.8 4 Sur 6 Sur 0 -- -- 90
2019-04-03 05:00:00 6.2 4 Sur 9 Sur 0 -- -- 90
2019-04-03 04:00:00 6.1 5 Sur 11 Sudeste 0 -- -- 91
2019-04-03 03:00:00 7.9 4 Sur 7 Sur 0 -- -- 86
2019-04-03 02:00:00 9.1 8 Sudoeste 16 Oeste 0 -- -- 87
2019-04-03 01:00:00 10.4 0 Calma 8 Sur 0 -- -- 85
2019-04-03 00:00:00 11.5 3 Oeste 11 Sur 0 -- -- 81
2019-04-02 23:00:00 11.4 6 Sur 14 Noroeste 0 -- -- 78
2019-04-02 22:00:00 12.5 9 Oeste 16 Oeste 0 -- -- 73
2019-04-02 21:00:00 12.9 5 Oeste 19 Noroeste 0 -- -- 70
2019-04-02 20:00:00 15.6 13 Noroeste 25 Noroeste 0 -- -- 55
2019-04-02 19:00:00 18.1 17 Noroeste 28 Norte 0 -- -- 40
2019-04-02 18:00:00 18.9 17 Norte 33 Noroeste 0 -- -- 32
2019-04-02 17:00:00 19.6 13 Noroeste 27 Norte 0 -- -- 38
2019-04-02 16:00:00 19.1 13 Noroeste 31 Norte 0 -- -- 45
2019-04-02 15:00:00 18.2 17 Norte 29 Norte 0 -- -- 55
2019-04-02 14:00:00 17.4 11 Noroeste 22 Noroeste 0 -- -- 56
2019-04-02 13:00:00 15.9 9 Oeste 20 Noroeste 0 -- -- 75
2019-04-02 12:00:00 14.7 6 Noroeste 16 Noroeste 0 -- -- 78
2019-04-02 11:00:00 11.9 4 Noroeste 10 Norte 0 -- -- 93
2019-04-02 10:00:00 10.1 0 Calma 5 Sur 0 -- -- 98
2019-04-02 09:00:00 6.4 4 Sur 6 Sur 0 -- -- 98
2019-04-02 08:00:00 5.3 2 Sur 4 Sudeste 0 -- -- 95
2019-04-02 07:00:00 5.9 0 Calma 4 Sur 0 -- -- 98
2019-04-02 06:00:00 6.8 0 Calma 7 Sur 0 -- -- 97
2019-04-02 05:00:00 7.3 4 Sudoeste 6 Sur 0 -- -- 96
2019-04-02 04:00:00 8.8 0 Calma -- -- 0 -- -- 96
2019-04-02 03:00:00 9.2 0 Calma 5 Sur 0 -- -- 95
2019-04-02 02:00:00 9.9 3 Sur 4 Sur 0.2 -- -- 95
2019-04-02 01:00:00 9.3 0 Calma 4 Sudoeste 0 -- -- 96
2019-04-02 00:00:00 9.2 0 Calma 4 Sur 0 -- -- 94
2019-04-01 23:00:00 10 3 Sur 4 Sudoeste 0 -- -- 94
2019-04-01 22:00:00 9.8 2 Sur 6 Sur 0 -- -- 93
2019-04-01 21:00:00 11 0 Calma 7 Oeste 0 -- -- 86
2019-04-01 20:00:00 13.4 5 Oeste 18 Sudoeste 0 -- -- 79
2019-04-01 19:00:00 15.1 8 Sudoeste 14 Oeste 0 -- -- 70
2019-04-01 18:00:00 15.1 2 Oeste 9 Sur 0 -- -- 70
2019-04-01 17:00:00 14.8 3 Sudoeste 9 Noroeste 0 -- -- 73
2019-04-01 16:00:00 13.5 4 Noroeste 10 Oeste 0 -- -- 78
2019-04-01 15:00:00 13.7 3 Sur 6 Este 0 -- -- 76
2019-04-01 14:00:00 12.2 0 Calma 6 Sur 0 -- -- 81
2019-04-01 13:00:00 11.4 0 Calma 10 Oeste 0 -- -- 80
2019-04-01 12:00:00 10.8 2 Sudeste 14 Sur 0.2 -- -- 81
2019-04-01 11:00:00 9.7 3 Sur 9 Sur 0.2 -- -- 86
2019-04-01 10:00:00 8.8 0 Calma 3 Nordeste 0.6 -- -- 97
2019-04-01 09:00:00 7.9 0 Calma 2 Noroeste 0.8 -- -- 97
2019-04-01 08:00:00 7.6 0 Calma 2 Norte 0.4 -- -- 96
2019-04-01 07:00:00 7.7 0 Calma 5 Este 0.6 -- -- 96
2019-04-01 06:00:00 7.6 0 Calma 3 Nordeste 0.2 -- -- 95
2019-04-01 05:00:00 7.9 2 Este 6 Este 0.4 -- -- 96
2019-04-01 04:00:00 7.7 0 Calma -- -- 0.8 -- -- 95
2019-04-01 03:00:00 8 0 Calma -- -- 0.4 -- -- 94
2019-04-01 02:00:00 8.2 0 Calma 2 Nordeste 0.6 -- -- 93
2019-04-01 01:00:00 8.3 0 Calma 2 Nordeste 0.8 -- -- 91
2019-04-01 00:00:00 8.6 0 Calma 5 Oeste 0.2 -- -- 90
2019-03-31 23:00:00 9 3 Sudoeste 5 Sudoeste 0 -- -- 88
2019-03-31 22:00:00 9.4 4 Nordeste 8 Norte 0 -- -- 86
2019-03-31 21:00:00 10 4 Norte 6 Norte 0 -- -- 80
2019-03-31 20:00:00 10.7 5 Oeste 14 Sudoeste 0 -- -- 76
2019-03-31 19:00:00 11.2 9 Sudoeste 18 Oeste 0 -- -- 74
2019-03-31 18:00:00 12.9 2 Sudoeste 10 Sur 0 -- -- 63
2019-03-31 17:00:00 13.2 3 Sudeste 22 Sudoeste 0 -- -- 61
2019-03-31 16:00:00 12.3 10 Sudoeste 22 Sudoeste 0 -- -- 65
2019-03-31 15:00:00 13.2 7 Sudoeste 18 Oeste 0 -- -- 63
2019-03-31 14:00:00 11.7 4 Sudeste 18 Sudeste 0 -- -- 68
2019-03-31 13:00:00 11.4 7 Sudeste 22 Sudeste 0 -- -- 69
2019-03-31 12:00:00 11.2 4 Sudeste 15 Sur 0 -- -- 71
2019-03-31 11:00:00 10.4 3 Sudeste 12 Sur 0 -- -- 73
2019-03-31 10:00:00 8.7 2 Oeste 6 Este 0 -- -- 80
2019-03-31 09:00:00 4.6 0 Calma 3 Oeste 0 -- -- 89
2019-03-31 08:00:00 3.7 3 Sur 7 Sur 0 -- -- 91
2019-03-31 07:00:00 3.6 4 Sudoeste 8 Sur 0 -- -- 91
2019-03-31 06:00:00 3.5 3 Sudoeste 5 Sudoeste 0 -- -- 91
2019-03-31 05:00:00 4.1 0 Calma 7 Sudoeste 0 -- -- 90
2019-03-31 03:00:00 6.9 3 Oeste 11 Sudoeste 0 -- -- 86
2019-03-31 01:00:00 7.7 3 Sudoeste 21 Sur 0 -- -- 80
2019-03-31 00:00:00 8.5 4 Sudeste 18 Sudeste 0 -- -- 74
2019-03-30 23:00:00 10.3 5 Sudoeste 19 Sur 0 -- -- 52
2019-03-30 22:00:00 10.2 5 Sudoeste 16 Sudoeste 0 -- -- 58
2019-03-30 21:00:00 11.8 13 Sur 21 Sudoeste 0 -- -- 53
2019-03-30 20:00:00 13.7 4 Sudeste 11 Sudeste 0 -- -- 41
2019-03-30 19:00:00 16.2 5 Sudeste 23 Sudeste 0 -- -- 35
2019-03-30 18:00:00 18 6 Sudeste 22 Sur 0 -- -- 33
2019-03-30 17:00:00 18.4 7 Sudeste 29 Sur 0 -- -- 32
2019-03-30 16:00:00 18.8 8 Sudeste 38 Oeste 0 -- -- 31
2019-03-30 15:00:00 18.4 10 Sur 28 Sur 0 -- -- 34
2019-03-30 14:00:00 18.1 13 Sudoeste 36 Sudoeste 0 -- -- 34
2019-03-30 13:00:00 16.6 6 Sur 16 Sur 0 -- -- 44
2019-03-30 12:00:00 14.9 3 Norte 18 Sudoeste 0 -- -- 49
2019-03-30 11:00:00 14.7 7 Oeste 17 Oeste 0 -- -- 52
2019-03-30 10:00:00 12.8 3 Este 13 Sur 0 -- -- 55
2019-03-30 09:00:00 10.2 3 Este 7 Este 0 -- -- 66
2019-03-30 08:00:00 6.5 3 Sur 10 Sur 0 -- -- 79
2019-03-30 07:00:00 6.3 5 Sur 17 Sudeste 0 -- -- 76
2019-03-30 06:00:00 6.9 9 Sur 24 Sudeste 0 -- -- 76
2019-03-30 05:00:00 7.6 14 Sudeste 28 Sur 0 -- -- 77
2019-03-30 04:00:00 7.7 7 Sudeste 26 Sur 0 -- -- 71
2019-03-30 03:00:00 8 9 Sudeste 24 Sur 0 -- -- 70
2019-03-30 02:00:00 8.2 7 Sudeste 21 Sudeste 0 -- -- 65
2019-03-30 01:00:00 7.9 4 Sudeste 14 Sudeste 0 -- -- 61
2019-03-30 00:00:00 8.9 2 Este 15 Sudeste 0 -- -- 54
2019-03-29 23:00:00 11.4 11 Sur 30 Sur 0 -- -- 47
2019-03-29 22:00:00 12.1 16 Sur 29 Sur 0 -- -- 47
2019-03-29 21:00:00 12.6 15 Sur 27 Sur 0 -- -- 44
2019-03-29 20:00:00 13.6 16 Sur 26 Sur 0 -- -- 46
2019-03-29 19:00:00 16.1 19 Sur 36 Sur 0 -- -- 39
2019-03-29 18:00:00 17.5 17 Sudeste 40 Sudeste 0 -- -- 36
2019-03-29 17:00:00 18.5 11 Sudeste 53 Sudeste 0 -- -- 33
2019-03-29 16:00:00 19.2 10 Sudeste 37 Sur 0 -- -- 29
2019-03-29 15:00:00 19.1 18 Sur 33 Sur 0 -- -- 28
2019-03-29 14:00:00 18.5 14 Sur 35 Sur 0 -- -- 30
2019-03-29 13:00:00 18.2 18 Sur 36 Sur 0 -- -- 32
2019-03-29 12:00:00 17.2 12 Sur 26 Sur 0 -- -- 32
2019-03-29 11:00:00 15.9 5 Sudeste 19 Sur 0 -- -- 35
2019-03-29 10:00:00 14 3 Oeste 10 Sudoeste 0 -- -- 40
2019-03-29 09:00:00 11.8 4 Sur 13 Sur 0 -- -- 49
2019-03-29 08:00:00 7.4 5 Sur 11 Sur 0 -- -- 65
2019-03-29 07:00:00 4.1 0 Calma 9 Sudoeste 0 -- -- 70
2019-03-29 06:00:00 7 2 Nordeste 26 Sudeste 0 -- -- 61
2019-03-29 05:00:00 7.8 11 Sudeste 26 Sur 0 -- -- 57
2019-03-29 04:00:00 8.4 7 Sudeste 23 Sur 0 -- -- 53
2019-03-29 03:00:00 8.3 5 Sudeste 18 Sur 0 -- -- 54
2019-03-29 02:00:00 7.9 2 Sur 23 Sur 0 -- -- 54
2019-03-29 01:00:00 9.6 3 Sudeste 19 Sur 0 -- -- 49
2019-03-29 00:00:00 9.7 4 Nordeste 17 Sudoeste 0 -- -- 49
2019-03-28 23:00:00 10.7 8 Sudoeste 12 Sudoeste 0 -- -- 46
2019-03-28 22:00:00 9.7 4 Sudoeste 10 Sur 0 -- -- 56
2019-03-28 21:00:00 13 6 Sur 14 Sur 0 -- -- 50
2019-03-28 20:00:00 12.8 4 Sur 9 Sur 0 -- -- 49
2019-03-28 19:00:00 17.2 3 Norte 9 Norte 0 -- -- 37
2019-03-28 18:00:00 18.6 6 Noroeste 16 Noroeste 0 -- -- 34
2019-03-28 17:00:00 19.3 4 Noroeste 18 Oeste 0 -- -- 32
2019-03-28 16:00:00 19.4 7 Noroeste 15 Noroeste 0 -- -- 32
2019-03-28 15:00:00 17.9 8 Noroeste 20 Noroeste 0 -- -- 36
2019-03-28 14:00:00 17.2 6 Norte 15 Norte 0 -- -- 41
2019-03-28 13:00:00 15.4 6 Nordeste 17 Nordeste 0 -- -- 46
2019-03-28 12:00:00 13.8 8 Norte 18 Norte 0 -- -- 52
2019-03-28 11:00:00 12.1 6 Norte 13 Norte 0 -- -- 57
2019-03-28 10:00:00 9.2 4 Norte 10 Norte 0 -- -- 65
2019-03-28 09:00:00 6.2 3 Nordeste 5 Nordeste 0 -- -- 71
2019-03-28 08:00:00 1.2 0 Calma 7 Sur 0 -- -- 85
2019-03-28 07:00:00 -1.8 0 Calma 5 Sudoeste 0 -- -- 88
2019-03-28 06:00:00 -1.3 2 Sudoeste 7 Sur 0 -- -- 86
2019-03-28 05:00:00 -0.2 5 Sudoeste 7 Sudoeste 0 -- -- 83
2019-03-28 04:00:00 0.9 5 Sur 8 Sudoeste 0 -- -- 78
2019-03-28 03:00:00 2.6 0 Calma 12 Este 0 -- -- 73
2019-03-28 02:00:00 1 2 Sudoeste 4 Oeste 0 -- -- 74
2019-03-28 01:00:00 3.5 3 Sur 10 Sudoeste 0 -- -- 65
2019-03-28 00:00:00 2.9 0 Calma 8 Sur 0 -- -- 65
2019-03-27 23:00:00 6.8 5 Sur 10 Sur 0 -- -- 52
2019-03-27 22:00:00 8.4 5 Sur 10 Sur 0 -- -- 45
2019-03-27 21:00:00 11.5 0 Calma 9 Oeste 0 -- -- 36
2019-03-27 20:00:00 12.3 4 Oeste 15 Oeste 0 -- -- 34
2019-03-27 19:00:00 16.9 11 Oeste 19 Oeste 0 -- -- 28
2019-03-27 18:00:00 19.5 12 Noroeste 19 Oeste 0 -- -- 20
2019-03-27 17:00:00 20.2 9 Noroeste 21 Noroeste 0 -- -- 20
2019-03-27 16:00:00 20 9 Noroeste 22 Oeste 0 -- -- 22
2019-03-27 15:00:00 19.3 9 Noroeste 21 Oeste 0 -- -- 26
2019-03-27 14:00:00 17.9 7 Noroeste 21 Oeste 0 -- -- 34
2019-03-27 13:00:00 16.1 7 Noroeste 19 Noroeste 0 -- -- 39
2019-03-27 12:00:00 14.2 5 Nordeste 16 Noroeste 0 -- -- 51
2019-03-27 11:00:00 12.2 4 Este 14 Norte 0 -- -- 56
2019-03-27 10:00:00 10.3 4 Norte 10 Nordeste 0 -- -- 63
2019-03-27 09:00:00 7.3 0 Calma 3 Norte 0 -- -- 74
2019-03-27 08:00:00 1.1 0 Calma 7 Noroeste 0 -- -- 91
2019-03-27 07:00:00 -1.3 0 Calma 3 Oeste 0 -- -- 90
2019-03-27 06:00:00 -0.4 0 Calma 11 Norte 0 -- -- 86
2019-03-27 05:00:00 0.7 0 Calma 6 Sur 0 -- -- 92
2019-03-27 04:00:00 1 0 Calma 11 Nordeste 0 -- -- 85
2019-03-27 03:00:00 0 0 Calma 6 Nordeste 0 -- -- 85
2019-03-27 02:00:00 0.7 2 Nordeste 5 Norte 0 -- -- 75
2019-03-27 01:00:00 0.4 0 Calma 4 Sudeste 0 -- -- 68
2019-03-27 00:00:00 3.7 4 Sur 8 Sur 0 -- -- 57
2019-03-26 23:00:00 6.3 6 Sur 10 Sur 0 -- -- 50
2019-03-26 22:00:00 7.4 4 Sur 9 Sur 0 -- -- 44
2019-03-26 21:00:00 10 3 Sur 17 Noroeste 0 -- -- 40
2019-03-26 20:00:00 12 5 Noroeste 16 Noroeste 0 -- -- 32
2019-03-26 19:00:00 17 6 Noroeste 14 Norte 0 -- -- 20
2019-03-26 18:00:00 19.8 10 Noroeste 21 Noroeste 0 -- -- 19
2019-03-26 17:00:00 20.1 12 Noroeste 23 Noroeste 0 -- -- 19
2019-03-26 16:00:00 20.2 10 Noroeste 21 Noroeste 0 -- -- 20
2019-03-26 15:00:00 19.2 12 Noroeste 24 Noroeste 0 -- -- 23
2019-03-26 14:00:00 17.8 10 Noroeste 21 Norte 0 -- -- 28
2019-03-26 13:00:00 16.3 9 Norte 21 Oeste 0 -- -- 37
2019-03-26 12:00:00 15.1 7 Noroeste 18 Norte 0 -- -- 37
2019-03-26 11:00:00 12.2 6 Norte 16 Norte 0 -- -- 45
2019-03-26 10:00:00 10.5 3 Noroeste 10 Norte 0 -- -- 53
2019-03-26 09:00:00 7.5 2 Este 6 Norte 0 -- -- 64
2019-03-26 08:00:00 1.3 0 Calma 8 Sudoeste 0 -- -- 86
2019-03-26 07:00:00 -0.7 3 Sudoeste 6 Sur 0 -- -- 89
2019-03-26 06:00:00 -0.3 4 Sudoeste 6 Sur 0 -- -- 88
2019-03-26 05:00:00 0.5 4 Sur 6 Sur 0 -- -- 88
2019-03-26 04:00:00 1.4 4 Sur 6 Sur 0 -- -- 86
2019-03-26 03:00:00 1.7 3 Sur 12 Sur 0 -- -- 83
2019-03-26 02:00:00 1.5 2 Sudoeste 8 Sur 0 -- -- 81
2019-03-26 01:00:00 4.6 4 Sur 8 Sur 0 -- -- 76
2019-03-26 00:00:00 4.6 5 Sudoeste 6 Sur 0 -- -- 74
2019-03-25 23:00:00 5.4 5 Sur 7 Sur 0 -- -- 70
2019-03-25 22:00:00 5.3 0 Calma 9 Oeste 0 -- -- 69
2019-03-25 21:00:00 7.8 0 Calma 8 Sur 0 -- -- 60
2019-03-25 20:00:00 9.7 3 Norte 19 Noroeste 0 -- -- 53
2019-03-25 19:00:00 13.5 14 Norte 37 Norte 0 -- -- 42
2019-03-25 18:00:00 16.8 17 Noroeste 33 Norte 0 -- -- 34
2019-03-25 17:00:00 17.5 22 Norte 37 Norte 0 -- -- 34
2019-03-25 16:00:00 18 19 Norte 35 Norte 0 -- -- 34
2019-03-25 15:00:00 18.1 18 Norte 35 Norte 0 -- -- 36
2019-03-25 14:00:00 17.8 21 Norte 35 Norte 0 -- -- 38
2019-03-25 13:00:00 17.8 16 Norte 34 Norte 0 -- -- 39
2019-03-25 12:00:00 16.6 19 Norte 33 Norte 0 -- -- 44
2019-03-25 11:00:00 14.9 20 Norte 31 Norte 0 -- -- 52
2019-03-25 10:00:00 13 16 Norte 31 Norte 0 -- -- 59
2019-03-25 09:00:00 9.9 8 Norte 13 Norte 0 -- -- 70
2019-03-25 08:00:00 3.3 0 Calma 3 Sur 0 -- -- 82
2019-03-25 07:00:00 1.7 2 Sur 8 Sudoeste 0 -- -- 83
2019-03-25 06:00:00 1.5 2 Sudoeste 7 Sudoeste 0 -- -- 84
2019-03-25 05:00:00 2.3 0 Calma 4 Sudoeste 0 -- -- 82
2019-03-25 04:00:00 2.5 0 Calma 6 Sur 0 -- -- 80
2019-03-25 03:00:00 5.1 5 Sur 9 Sur 0 -- -- 75
2019-03-25 02:00:00 5.8 4 Sur 8 Sur 0 -- -- 72
2019-03-25 01:00:00 6.8 7 Sur 11 Sudoeste 0 -- -- 67
2019-03-25 00:00:00 9.1 6 Sudoeste 10 Sur 0 -- -- 56
2019-03-24 23:00:00 10 5 Sur 11 Sudoeste 0 -- -- 51
2019-03-24 22:00:00 9.6 5 Sudoeste 11 Sudoeste 0 -- -- 50
2019-03-24 21:00:00 11.4 4 Sur 8 Sur 0 -- -- 47
2019-03-24 20:00:00 15.7 5 Sur 10 Oeste 0 -- -- 39
2019-03-24 19:00:00 18.9 7 Oeste 16 Oeste 0 -- -- 28
2019-03-24 18:00:00 22.6 11 Noroeste 22 Noroeste 0 -- -- 24
2019-03-24 17:00:00 22.7 9 Oeste 23 Noroeste 0 -- -- 25
2019-03-24 16:00:00 23.9 11 Noroeste 25 Noroeste 0 -- -- 24
2019-03-24 15:00:00 23.5 14 Oeste 23 Oeste 0 -- -- 26
2019-03-24 14:00:00 22.5 9 Noroeste 19 Noroeste 0 -- -- 25
2019-03-24 13:00:00 21.4 6 Noroeste 14 Noroeste 0 -- -- 30
2019-03-24 12:00:00 20.1 6 Noroeste 13 Noroeste 0 -- -- 34
2019-03-24 11:00:00 17.8 5 Norte 9 Norte 0 -- -- 37
2019-03-24 10:00:00 15.7 4 Oeste 8 Oeste 0 -- -- 40
2019-03-24 09:00:00 9.1 4 Sudoeste 8 Sur 0 -- -- 58
2019-03-24 08:00:00 4.4 5 Sur 10 Sudoeste 0 -- -- 67
2019-03-24 07:00:00 3 2 Sur 7 Sudoeste 0 -- -- 69
2019-03-24 06:00:00 4.2 5 Sur 10 Sudoeste 0 -- -- 64
2019-03-24 05:00:00 3 0 Calma 6 Sudoeste 0 -- -- 69
2019-03-24 04:00:00 5 5 Sur 9 Sur 0 -- -- 62
2019-03-24 03:00:00 4.3 0 Calma 9 Sur 0 -- -- 63
2019-03-24 02:00:00 5.7 5 Sudoeste 9 Sudoeste 0 -- -- 60
2019-03-24 01:00:00 6.9 4 Sur 6 Sur 0 -- -- 58
2019-03-24 00:00:00 7.5 0 Calma 8 Sur 0 -- -- 57
2019-03-23 23:00:00 9.3 3 Sur 8 Sudoeste 0 -- -- 50
2019-03-23 22:00:00 10.3 0 Calma 6 Sudoeste 0 -- -- 52
2019-03-23 21:00:00 10.9 0 Calma 10 Sur 0 -- -- 50
2019-03-23 20:00:00 14.3 4 Sur 9 Sur 0 -- -- 43
2019-03-23 19:00:00 18 5 Oeste 12 Oeste 0 -- -- 39
2019-03-23 18:00:00 21.5 9 Oeste 16 Oeste 0 -- -- 32
2019-03-23 17:00:00 22.4 4 Sudoeste 21 Sur 0 -- -- 30
2019-03-23 16:00:00 22.8 9 Sudoeste 21 Oeste 0 -- -- 31
2019-03-23 15:00:00 23.4 11 Oeste 22 Oeste 0 -- -- 31
2019-03-23 14:00:00 21.5 10 Norte 18 Norte 0 -- -- 34
2019-03-23 13:00:00 19.7 10 Nordeste 19 Nordeste 0 -- -- 37
2019-03-23 12:00:00 18.2 8 Norte 12 Norte 0 -- -- 39
2019-03-23 11:00:00 16.5 4 Norte 10 Norte 0 -- -- 43
2019-03-23 10:00:00 13.4 4 Norte 10 Sudoeste 0 -- -- 51
2019-03-23 09:00:00 10.9 5 Sudoeste 10 Sudoeste 0 -- -- 59
2019-03-23 08:00:00 4.3 5 Sudoeste 8 Sudoeste 0 -- -- 75
2019-03-23 07:00:00 2.1 6 Sur 8 Sudoeste 0 -- -- 79
2019-03-23 06:00:00 3 6 Sudoeste 9 Sur 0 -- -- 76
2019-03-23 05:00:00 2.9 6 Sur 9 Sur 0 -- -- 77
2019-03-23 04:00:00 3.7 0 Calma 8 Sur 0 -- -- 71
2019-03-23 03:00:00 4.6 3 Sur 7 Sudoeste 0 -- -- 69
2019-03-23 02:00:00 4.8 3 Sur 14 Sudoeste 0 -- -- 69
2019-03-23 01:00:00 5.9 4 Sur 8 Sur 0 -- -- 66
2019-03-23 00:00:00 5.1 0 Calma 9 Sur 0 -- -- 64
2019-03-22 23:00:00 6.3 4 Sur 7 Sur 0 -- -- 63
2019-03-22 22:00:00 7.2 4 Sur 6 Sudoeste 0 -- -- 60
2019-03-22 21:00:00 8.5 3 Sur 5 Sur 0 -- -- 56
2019-03-22 20:00:00 12.9 4 Sur 8 Noroeste 0 -- -- 44
2019-03-22 19:00:00 16.5 2 Noroeste 14 Sur 0 -- -- 35
2019-03-22 18:00:00 19.3 8 Norte 20 Este 0 -- -- 31
2019-03-22 17:00:00 20 4 Este 16 Oeste 0 -- -- 30
2019-03-22 16:00:00 20.3 7 Oeste 17 Oeste 0 -- -- 28
2019-03-22 15:00:00 19.4 8 Sur 21 Oeste 0 -- -- 28
2019-03-22 14:00:00 18.6 6 Sudoeste 17 Sudoeste 0 -- -- 28
2019-03-22 13:00:00 18.4 10 Oeste 19 Oeste 0 -- -- 30
2019-03-22 12:00:00 16.5 9 Norte 15 Norte 0 -- -- 34
2019-03-22 11:00:00 14.2 4 Norte 9 Nordeste 0 -- -- 35
2019-03-22 10:00:00 10.3 4 Nordeste 7 Nordeste 0 -- -- 43
2019-03-22 09:00:00 6 3 Nordeste 5 Norte 0 -- -- 56
2019-03-22 08:00:00 0.9 0 Calma 8 Sur 0 -- -- 69
2019-03-22 07:00:00 -1.1 3 Sur 5 Sudoeste 0 -- -- 74
2019-03-22 06:00:00 -0.8 2 Sur 6 Sur 0 -- -- 72
2019-03-22 05:00:00 0.1 2 Sur 8 Sur 0 -- -- 69
2019-03-22 04:00:00 -0.1 0 Calma 2 Sudoeste 0 -- -- 68
2019-03-22 03:00:00 1.8 0 Calma 10 Sur 0 -- -- 62
2019-03-22 02:00:00 2.8 6 Sur 10 Sur 0 -- -- 60
2019-03-22 01:00:00 2.2 4 Sur 5 Sur 0 -- -- 56
2019-03-22 00:00:00 2.6 3 Sur 8 Sudoeste 0 -- -- 54
2019-03-21 23:00:00 3.3 5 Sur 9 Sudoeste 0 -- -- 51
2019-03-21 22:00:00 4.8 3 Este 8 Sudoeste 0 -- -- 49
2019-03-21 21:00:00 5.6 2 Sudoeste 8 Sur 0 -- -- 45
2019-03-21 20:00:00 9.7 7 Sur 9 Sur 0 -- -- 36
2019-03-21 19:00:00 12.7 6 Oeste 14 Noroeste 0 -- -- 35
2019-03-21 18:00:00 16.3 6 Noroeste 14 Oeste 0 -- -- 31
2019-03-21 17:00:00 17 4 Norte 18 Nordeste 0 -- -- 32
2019-03-21 16:00:00 16.2 6 Norte 21 Norte 0 -- -- 35
2019-03-21 15:00:00 16.6 6 Oeste 17 Oeste 0 -- -- 35
2019-03-21 14:00:00 15.9 5 Noroeste 15 Sudoeste 0 -- -- 38
2019-03-21 13:00:00 14.6 8 Sudoeste 14 Oeste 0 -- -- 42
2019-03-21 12:00:00 12.9 3 Sudoeste 13 Norte 0 -- -- 46
2019-03-21 11:00:00 9.6 4 Este 9 Norte 0 -- -- 54
2019-03-21 10:00:00 7.3 5 Nordeste 9 Norte 0 -- -- 65
2019-03-21 09:00:00 4.6 2 Nordeste 3 Nordeste 0 -- -- 74
2019-03-21 08:00:00 -1 2 Sudoeste 4 Sudoeste 0 -- -- 89
2019-03-21 07:00:00 -2.4 0 Calma 6 Sudoeste 0 -- -- 87
2019-03-21 06:00:00 -2 2 Sudoeste 4 Sur 0 -- -- 89
2019-03-21 05:00:00 -0.7 5 Sur 8 Sur 0 -- -- 87
2019-03-21 04:00:00 -1.3 2 Sudoeste 4 Sudoeste 0 -- -- 87
2019-03-21 03:00:00 -0.3 0 Calma 4 Sur 0 -- -- 81
2019-03-21 02:00:00 -0.6 0 Calma 4 Noroeste 0 -- -- 81
2019-03-21 01:00:00 -0.3 0 Calma 6 Oeste 0 -- -- 77
2019-03-21 00:00:00 3.9 3 Sur 9 Sur 0 -- -- 64